Dahli Brooke — WDH3184 — position and weather

sailwx.info

Track history (hours):
 
Tides and Currents Weather Stations Pressure Air Temp Water Temp Dewpoint Dewpoint Depression Visibility Wind Speed Wind Dir Waves Ship Positions

Dahli Brooke

Owner: Dahli Brooke, LLC., Sulphur, LA. More information available from US FCC via Universal Licensing System and Coast Guard Vessel Documentation Center.

Last reported at 2018-Feb-20 18:35 UTC. Time now 2018-Feb-20 23:27 UTC.
Position N 29°36' W 094°25'.

Length 25 m.

Type: Fishing. MMSI: 367605130.

Date/timePositionNaut miles runAvg speedWind from/ knotsBaromVisibWave heightAir tempDewpointWater temp
2018-Feb-20 18:35N 29°36' W 094°25'1 6.5
2018-Feb-20 18:28N 29°36' W 094°24'3 1.4
2018-Feb-20 16:30N 29°37' W 094°21'2 3.9
2018-Feb-20 16:00N 29°38' W 094°19'1 3.0
2018-Feb-20 15:30N 29°39' W 094°17'2 3.5
2018-Feb-20 15:00N 29°39' W 094°15'2 3.8
2018-Feb-20 14:29N 29°40' W 094°13'0 0.4
2018-Feb-20 14:00N 29°40' W 094°13'0 0.0
2018-Feb-20 13:30N 29°40' W 094°13'0 0.0
2018-Feb-20 13:00N 29°40' W 094°13'0 0.0
2018-Feb-20 12:30N 29°40' W 094°13'0 0.0
2018-Feb-20 12:01N 29°40' W 094°13'0 0.0
2018-Feb-20 11:30N 29°40' W 094°13'0 0.0
2018-Feb-20 10:59N 29°40' W 094°13'0 0.0
2018-Feb-20 10:31N 29°40' W 094°13'0 0.0
2018-Feb-20 10:00N 29°40' W 094°13'0 0.0
2018-Feb-20 09:31N 29°40' W 094°13'0 0.0
2018-Feb-20 09:00N 29°40' W 094°13'1 2.9
2018-Feb-20 08:30N 29°41' W 094°12'2 4.6
2018-Feb-20 08:01N 29°42' W 094°09'1 2.6
2018-Feb-20 07:30N 29°42' W 094°08'2 3.8
2018-Feb-20 07:00N 29°44' W 094°06'3 6.5
2018-Feb-20 06:30N 29°46' W 094°03'3 6.0
2018-Feb-20 06:01N 29°48' W 094°01'3 5.1
2018-Feb-20 05:30N 29°49' W 093°58'2 4.3
2018-Feb-20 05:00N 29°51' W 093°57'3 5.1
2018-Feb-20 04:31N 29°53' W 093°55'4 7.4
2018-Feb-20 04:00N 29°56' W 093°52'3 6.0
2018-Feb-20 03:30N 29°58' W 093°51'3 5.1
2018-Feb-20 03:01N 29°59' W 093°48'2 3.3
2018-Feb-20 02:31N 30°00' W 093°46'0 0.0
2018-Feb-20 02:01N 30°00' W 093°46'1 2.7
2018-Feb-20 01:30N 30°01' W 093°45'2 4.7
2018-Feb-20 01:00N 30°03' W 093°44'1 1.0
2018-Feb-20 00:29N 30°04' W 093°44'0 0.4
2018-Feb-20 00:00N 30°03' W 093°44'0 0.0
2018-Feb-19 23:30N 30°03' W 093°44'0 0.1
2018-Feb-19 22:10N 30°04' W 093°44'0 0.0
2018-Feb-19 20:57N 30°04' W 093°44'0 0.4
2018-Feb-19 20:30N 30°03' W 093°44'1 2.6
2018-Feb-19 20:00N 30°04' W 093°43'1 2.5
2018-Feb-19 19:28N 30°05' W 093°43'1 2.2
2018-Feb-19 18:59N 30°04' W 093°43'2 3.3
2018-Feb-19 18:28N 30°04' W 093°42'3 6.3
2018-Feb-19 18:00N 30°04' W 093°38'3 6.0
2018-Feb-19 17:29N 30°04' W 093°35'3 5.7
2018-Feb-19 17:00N 30°04' W 093°31'3 5.9
2018-Feb-19 16:31N 30°04' W 093°28'3 5.5
2018-Feb-19 16:00N 30°04' W 093°25'2 4.9
2018-Feb-19 15:30N 30°04' W 093°22'0 1.0
2018-Feb-19 15:00N 30°04' W 093°21'0 0.1
2018-Feb-19 14:26N 30°04' W 093°21'0 0.1
2018-Feb-19 14:00N 30°04' W 093°21'2 3.5
2018-Feb-19 13:30N 30°05' W 093°20'1 2.0
2018-Feb-19 13:00N 30°06' W 093°20'2 5.0
2018-Feb-19 12:30N 30°08' W 093°20'2 4.2
2018-Feb-19 12:00N 30°10' W 093°19'0 0.0
2018-Feb-19 11:30N 30°10' W 093°19'0 0.4
2018-Feb-19 11:00N 30°10' W 093°19'3 6.7
2018-Feb-19 10:30N 30°07' W 093°20'2 4.9
2018-Feb-19 10:00N 30°04' W 093°20'1 2.1
2018-Feb-19 09:28N 30°05' W 093°20'1 1.9
2018-Feb-19 08:59N 30°06' W 093°19'0 0.0
2018-Feb-19 08:30N 30°06' W 093°19'0 0.0
2018-Feb-19 08:00N 30°06' W 093°19'0 0.0
2018-Feb-19 07:30N 30°06' W 093°19'0 0.0
2018-Feb-19 06:59N 30°06' W 093°19'0 0.0
2018-Feb-19 06:30N 30°06' W 093°19'0 0.0
2018-Feb-19 06:00N 30°06' W 093°19'0 0.0
2018-Feb-19 05:30N 30°06' W 093°19'0 0.0
2018-Feb-19 05:00N 30°06' W 093°19'0 0.0
2018-Feb-19 04:29N 30°06' W 093°19'0 0.0
2018-Feb-19 04:00N 30°06' W 093°19'1 2.3
2018-Feb-19 03:30N 30°05' W 093°20'1 2.0
2018-Feb-19 03:00N 30°06' W 093°19'0 0.4
2018-Feb-19 02:30N 30°06' W 093°19'0 0.0
2018-Feb-19 02:00N 30°06' W 093°19'0 0.1
2018-Feb-19 01:30N 30°06' W 093°19'0 0.0
2018-Feb-19 01:00N 30°06' W 093°19'0 0.8
2018-Feb-19 00:30N 30°06' W 093°18'2 4.8
2018-Feb-19 00:00N 30°04' W 093°16'1 1.4
2018-Feb-18 23:30N 30°04' W 093°16'0 0.3
2018-Feb-18 23:00N 30°04' W 093°16'1 2.4
2018-Feb-18 22:30N 30°03' W 093°16'3 5.7
2018-Feb-18 22:00N 30°00' W 093°14'3 6.3
2018-Feb-18 21:30N 29°58' W 093°11'3 5.9
2018-Feb-18 21:00N 29°56' W 093°08'3 6.0
2018-Feb-18 20:30N 29°56' W 093°05'38 5.5
2018-Feb-18 13:35N 29°51' W 092°22'2 4.8
2018-Feb-18 13:16N 29°51' W 092°20'1 5.4
2018-Feb-18 13:00N 29°50' W 092°18'2 4.2
2018-Feb-18 12:30N 29°49' W 092°17'2 3.7
2018-Feb-18 12:00N 29°48' W 092°15'2 4.8
2018-Feb-18 11:30N 29°47' W 092°12'2 3.4
2018-Feb-18 11:00N 29°47' W 092°10'2 5.0
2018-Feb-18 10:30N 29°47' W 092°07'0 0.8
2018-Feb-18 10:00N 29°47' W 092°07'0 0.0
2018-Feb-18 09:30N 29°47' W 092°07'0 0.0
2018-Feb-18 09:00N 29°47' W 092°07'0 0.0
2018-Feb-18 08:30N 29°47' W 092°07'0 0.0
2018-Feb-18 08:00N 29°47' W 092°07'0 0.0
2018-Feb-18 07:30N 29°47' W 092°07'0 0.0
2018-Feb-18 07:00N 29°47' W 092°07'0 0.0
2018-Feb-18 06:30N 29°47' W 092°07'0 0.0
2018-Feb-18 06:00N 29°47' W 092°07'0 0.0
2018-Feb-18 05:30N 29°47' W 092°07'0 0.0
2018-Feb-18 05:00N 29°47' W 092°07'0 0.0
2018-Feb-18 04:30N 29°47' W 092°07'0 0.0
2018-Feb-18 04:00N 29°47' W 092°07'2 4.0
2018-Feb-18 03:29N 29°48' W 092°05'  
2018-Feb-13 07:14N 29°56' W 093°04'2 4.9
2018-Feb-13 06:51N 29°56' W 093°07'2 5.3
2018-Feb-13 06:30N 29°56' W 093°09'2 4.9
2018-Feb-13 06:00N 29°58' W 093°11'2 4.4
2018-Feb-13 05:29N 29°59' W 093°13'2 4.3
2018-Feb-13 05:00N 30°01' W 093°14'1 1.2
2018-Feb-13 04:30N 30°02' W 093°14'2 4.1
2018-Feb-13 04:00N 30°03' W 093°16'2 4.0
2018-Feb-13 03:30N 30°05' W 093°17'2 3.6
2018-Feb-13 03:00N 30°06' W 093°18'0 0.8
2018-Feb-13 02:30N 30°06' W 093°19'2 4.1
2018-Feb-13 02:00N 30°04' W 093°20'1 2.0
2018-Feb-13 01:30N 30°04' W 093°21'0 0.1
2018-Feb-13 01:00N 30°04' W 093°21'3 6.1
2018-Feb-13 00:30N 30°07' W 093°20'4 7.4
2018-Feb-13 00:00N 30°10' W 093°19'0 0.1
2018-Feb-12 23:30N 30°10' W 093°19'2 3.4
2018-Feb-12 23:00N 30°09' W 093°20'4 7.4
2018-Feb-12 22:30N 30°05' W 093°20'2 3.7
2018-Feb-12 22:00N 30°04' W 093°21'0 0.1
2018-Feb-12 21:29N 30°04' W 093°21'0 0.2
2018-Feb-12 20:55N 30°04' W 093°21'0 1.0
2018-Feb-12 20:27N 30°04' W 093°22'1 1.2
2018-Feb-12 20:00N 30°04' W 093°23'3 5.0
2018-Feb-12 19:25N 30°04' W 093°26'2 6.0
2018-Feb-12 19:00N 30°04' W 093°29'3 6.2
2018-Feb-12 18:30N 30°04' W 093°32'3 6.3
2018-Feb-12 18:00N 30°04' W 093°36'5 6.3
2018-Feb-12 17:12N 30°03' W 093°42'1 2.9
2018-Feb-12 16:59N 30°03' W 093°43'0 0.3
2018-Feb-12 16:31N 30°03' W 093°43'3 6.3
2018-Feb-12 16:01N 30°01' W 093°45'3 6.6
2018-Feb-12 15:30N 29°59' W 093°48'3 6.3
2018-Feb-12 14:59N 29°57' W 093°52'3 6.8
2018-Feb-12 14:31N 29°55' W 093°54'3 6.6
2018-Feb-12 13:59N 29°52' W 093°56'3 5.9
2018-Feb-12 13:30N 29°49' W 093°58'4 7.6
2018-Feb-12 13:00N 29°47' W 094°01'4 7.3
2018-Feb-12 12:31N 29°45' W 094°04'4 7.0
2018-Feb-12 12:00N 29°43' W 094°08'3 6.6
2018-Feb-12 11:31N 29°41' W 094°11'3 5.6
2018-Feb-12 11:00N 29°40' W 094°14'3 5.5
2018-Feb-12 10:29N 29°39' W 094°17'2 4.3
2018-Feb-12 09:59N 29°38' W 094°19'4 5.5
2018-Feb-12 09:11N 29°36' W 094°23'25 3.3
2018-Feb-12 01:34N 29°28' W 094°51'1 6.1
2018-Feb-12 01:23N 29°29' W 094°52'4 6.3
2018-Feb-12 00:49N 29°32' W 094°54'2 6.5
2018-Feb-12 00:30N 29°34' W 094°55'3 6.5
2018-Feb-12 00:00N 29°36' W 094°57'3 6.5
2018-Feb-11 23:29N 29°39' W 094°58'6 0.4
2018-Feb-11 07:49N 29°44' W 095°03'2 0.3
2018-Feb-10 22:28N 29°42' W 095°01'3 7.1
2018-Feb-10 22:00N 29°40' W 094°59'4 8.0
2018-Feb-10 21:30N 29°36' W 094°57'4 8.3
2018-Feb-10 21:00N 29°33' W 094°54'  
Track history (hours):
 
Tides and Currents Weather Stations Pressure Air Temp Water Temp Dewpoint Dewpoint Depression Visibility Wind Speed Wind Dir Waves Ship Positions

Dahli Brooke

Owner: Dahli Brooke, LLC., Sulphur, LA. More information available from US FCC via Universal Licensing System and Coast Guard Vessel Documentation Center.

Last reported at 2018-Feb-20 18:35 UTC. Time now 2018-Feb-20 23:27 UTC.
Position N 29°36' W 094°25'.

Length 25 m.

Type: Fishing. MMSI: 367605130.

Date/timePositionNaut miles runAvg speedWind from/ knotsBaromVisibWave heightAir tempDewpointWater temp
2018-Feb-20 18:35N 29°36' W 094°25'1 6.5
2018-Feb-20 18:28N 29°36' W 094°24'3 1.4
2018-Feb-20 16:30N 29°37' W 094°21'2 3.9
2018-Feb-20 16:00N 29°38' W 094°19'1 3.0
2018-Feb-20 15:30N 29°39' W 094°17'2 3.5
2018-Feb-20 15:00N 29°39' W 094°15'2 3.8
2018-Feb-20 14:29N 29°40' W 094°13'0 0.4
2018-Feb-20 14:00N 29°40' W 094°13'0 0.0
2018-Feb-20 13:30N 29°40' W 094°13'0 0.0
2018-Feb-20 13:00N 29°40' W 094°13'0 0.0
2018-Feb-20 12:30N 29°40' W 094°13'0 0.0
2018-Feb-20 12:01N 29°40' W 094°13'0 0.0
2018-Feb-20 11:30N 29°40' W 094°13'0 0.0
2018-Feb-20 10:59N 29°40' W 094°13'0 0.0
2018-Feb-20 10:31N 29°40' W 094°13'0 0.0
2018-Feb-20 10:00N 29°40' W 094°13'0 0.0
2018-Feb-20 09:31N 29°40' W 094°13'0 0.0
2018-Feb-20 09:00N 29°40' W 094°13'1 2.9
2018-Feb-20 08:30N 29°41' W 094°12'2 4.6
2018-Feb-20 08:01N 29°42' W 094°09'1 2.6
2018-Feb-20 07:30N 29°42' W 094°08'2 3.8
2018-Feb-20 07:00N 29°44' W 094°06'3 6.5
2018-Feb-20 06:30N 29°46' W 094°03'3 6.0
2018-Feb-20 06:01N 29°48' W 094°01'3 5.1
2018-Feb-20 05:30N 29°49' W 093°58'2 4.3
2018-Feb-20 05:00N 29°51' W 093°57'3 5.1
2018-Feb-20 04:31N 29°53' W 093°55'4 7.4
2018-Feb-20 04:00N 29°56' W 093°52'3 6.0
2018-Feb-20 03:30N 29°58' W 093°51'3 5.1
2018-Feb-20 03:01N 29°59' W 093°48'2 3.3
2018-Feb-20 02:31N 30°00' W 093°46'0 0.0
2018-Feb-20 02:01N 30°00' W 093°46'1 2.7
2018-Feb-20 01:30N 30°01' W 093°45'2 4.7
2018-Feb-20 01:00N 30°03' W 093°44'1 1.0
2018-Feb-20 00:29N 30°04' W 093°44'0 0.4
2018-Feb-20 00:00N 30°03' W 093°44'0 0.0
2018-Feb-19 23:30N 30°03' W 093°44'0 0.1
2018-Feb-19 22:10N 30°04' W 093°44'0 0.0
2018-Feb-19 20:57N 30°04' W 093°44'0 0.4
2018-Feb-19 20:30N 30°03' W 093°44'1 2.6
2018-Feb-19 20:00N 30°04' W 093°43'1 2.5
2018-Feb-19 19:28N 30°05' W 093°43'1 2.2
2018-Feb-19 18:59N 30°04' W 093°43'2 3.3
2018-Feb-19 18:28N 30°04' W 093°42'3 6.3
2018-Feb-19 18:00N 30°04' W 093°38'3 6.0
2018-Feb-19 17:29N 30°04' W 093°35'3 5.7
2018-Feb-19 17:00N 30°04' W 093°31'3 5.9
2018-Feb-19 16:31N 30°04' W 093°28'3 5.5
2018-Feb-19 16:00N 30°04' W 093°25'2 4.9
2018-Feb-19 15:30N 30°04' W 093°22'0 1.0
2018-Feb-19 15:00N 30°04' W 093°21'0 0.1
2018-Feb-19 14:26N 30°04' W 093°21'0 0.1
2018-Feb-19 14:00N 30°04' W 093°21'2 3.5
2018-Feb-19 13:30N 30°05' W 093°20'1 2.0
2018-Feb-19 13:00N 30°06' W 093°20'2 5.0
2018-Feb-19 12:30N 30°08' W 093°20'2 4.2
2018-Feb-19 12:00N 30°10' W 093°19'0 0.0
2018-Feb-19 11:30N 30°10' W 093°19'0 0.4
2018-Feb-19 11:00N 30°10' W 093°19'3 6.7
2018-Feb-19 10:30N 30°07' W 093°20'2 4.9
2018-Feb-19 10:00N 30°04' W 093°20'1 2.1
2018-Feb-19 09:28N 30°05' W 093°20'1 1.9
2018-Feb-19 08:59N 30°06' W 093°19'0 0.0
2018-Feb-19 08:30N 30°06' W 093°19'0 0.0
2018-Feb-19 08:00N 30°06' W 093°19'0 0.0
2018-Feb-19 07:30N 30°06' W 093°19'0 0.0
2018-Feb-19 06:59N 30°06' W 093°19'0 0.0
2018-Feb-19 06:30N 30°06' W 093°19'0 0.0
2018-Feb-19 06:00N 30°06' W 093°19'0 0.0
2018-Feb-19 05:30N 30°06' W 093°19'0 0.0
2018-Feb-19 05:00N 30°06' W 093°19'0 0.0
2018-Feb-19 04:29N 30°06' W 093°19'0 0.0
2018-Feb-19 04:00N 30°06' W 093°19'1 2.3
2018-Feb-19 03:30N 30°05' W 093°20'1 2.0
2018-Feb-19 03:00N 30°06' W 093°19'0 0.4
2018-Feb-19 02:30N 30°06' W 093°19'0 0.0
2018-Feb-19 02:00N 30°06' W 093°19'0 0.1
2018-Feb-19 01:30N 30°06' W 093°19'0 0.0
2018-Feb-19 01:00N 30°06' W 093°19'0 0.8
2018-Feb-19 00:30N 30°06' W 093°18'2 4.8
2018-Feb-19 00:00N 30°04' W 093°16'1 1.4
2018-Feb-18 23:30N 30°04' W 093°16'0 0.3
2018-Feb-18 23:00N 30°04' W 093°16'1 2.4
2018-Feb-18 22:30N 30°03' W 093°16'3 5.7
2018-Feb-18 22:00N 30°00' W 093°14'3 6.3
2018-Feb-18 21:30N 29°58' W 093°11'3 5.9
2018-Feb-18 21:00N 29°56' W 093°08'3 6.0
2018-Feb-18 20:30N 29°56' W 093°05'38 5.5
2018-Feb-18 13:35N 29°51' W 092°22'2 4.8
2018-Feb-18 13:16N 29°51' W 092°20'1 5.4
2018-Feb-18 13:00N 29°50' W 092°18'2 4.2
2018-Feb-18 12:30N 29°49' W 092°17'2 3.7
2018-Feb-18 12:00N 29°48' W 092°15'2 4.8
2018-Feb-18 11:30N 29°47' W 092°12'2 3.4
2018-Feb-18 11:00N 29°47' W 092°10'2 5.0
2018-Feb-18 10:30N 29°47' W 092°07'0 0.8
2018-Feb-18 10:00N 29°47' W 092°07'0 0.0
2018-Feb-18 09:30N 29°47' W 092°07'0 0.0
2018-Feb-18 09:00N 29°47' W 092°07'0 0.0
2018-Feb-18 08:30N 29°47' W 092°07'0 0.0
2018-Feb-18 08:00N 29°47' W 092°07'0 0.0
2018-Feb-18 07:30N 29°47' W 092°07'0 0.0
2018-Feb-18 07:00N 29°47' W 092°07'0 0.0
2018-Feb-18 06:30N 29°47' W 092°07'0 0.0
2018-Feb-18 06:00N 29°47' W 092°07'0 0.0
2018-Feb-18 05:30N 29°47' W 092°07'0 0.0
2018-Feb-18 05:00N 29°47' W 092°07'0 0.0
2018-Feb-18 04:30N 29°47' W 092°07'0 0.0
2018-Feb-18 04:00N 29°47' W 092°07'2 4.0
2018-Feb-18 03:29N 29°48' W 092°05'  
2018-Feb-13 07:14N 29°56' W 093°04'2 4.9
2018-Feb-13 06:51N 29°56' W 093°07'2 5.3
2018-Feb-13 06:30N 29°56' W 093°09'2 4.9
2018-Feb-13 06:00N 29°58' W 093°11'2 4.4
2018-Feb-13 05:29N 29°59' W 093°13'2 4.3
2018-Feb-13 05:00N 30°01' W 093°14'1 1.2
2018-Feb-13 04:30N 30°02' W 093°14'2 4.1
2018-Feb-13 04:00N 30°03' W 093°16'2 4.0
2018-Feb-13 03:30N 30°05' W 093°17'2 3.6
2018-Feb-13 03:00N 30°06' W 093°18'0 0.8
2018-Feb-13 02:30N 30°06' W 093°19'2 4.1
2018-Feb-13 02:00N 30°04' W 093°20'1 2.0
2018-Feb-13 01:30N 30°04' W 093°21'0 0.1
2018-Feb-13 01:00N 30°04' W 093°21'3 6.1
2018-Feb-13 00:30N 30°07' W 093°20'4 7.4
2018-Feb-13 00:00N 30°10' W 093°19'0 0.1
2018-Feb-12 23:30N 30°10' W 093°19'2 3.4
2018-Feb-12 23:00N 30°09' W 093°20'4 7.4
2018-Feb-12 22:30N 30°05' W 093°20'2 3.7
2018-Feb-12 22:00N 30°04' W 093°21'0 0.1
2018-Feb-12 21:29N 30°04' W 093°21'0 0.2
2018-Feb-12 20:55N 30°04' W 093°21'0 1.0
2018-Feb-12 20:27N 30°04' W 093°22'1 1.2
2018-Feb-12 20:00N 30°04' W 093°23'3 5.0
2018-Feb-12 19:25N 30°04' W 093°26'2 6.0
2018-Feb-12 19:00N 30°04' W 093°29'3 6.2
2018-Feb-12 18:30N 30°04' W 093°32'3 6.3
2018-Feb-12 18:00N 30°04' W 093°36'5 6.3
2018-Feb-12 17:12N 30°03' W 093°42'1 2.9
2018-Feb-12 16:59N 30°03' W 093°43'0 0.3
2018-Feb-12 16:31N 30°03' W 093°43'3 6.3
2018-Feb-12 16:01N 30°01' W 093°45'3 6.6
2018-Feb-12 15:30N 29°59' W 093°48'3 6.3
2018-Feb-12 14:59N 29°57' W 093°52'3 6.8
2018-Feb-12 14:31N 29°55' W 093°54'3 6.6
2018-Feb-12 13:59N 29°52' W 093°56'3 5.9
2018-Feb-12 13:30N 29°49' W 093°58'4 7.6
2018-Feb-12 13:00N 29°47' W 094°01'4 7.3
2018-Feb-12 12:31N 29°45' W 094°04'4 7.0
2018-Feb-12 12:00N 29°43' W 094°08'3 6.6
2018-Feb-12 11:31N 29°41' W 094°11'3 5.6
2018-Feb-12 11:00N 29°40' W 094°14'3 5.5
2018-Feb-12 10:29N 29°39' W 094°17'2 4.3
2018-Feb-12 09:59N 29°38' W 094°19'4 5.5
2018-Feb-12 09:11N 29°36' W 094°23'25 3.3
2018-Feb-12 01:34N 29°28' W 094°51'1 6.1
2018-Feb-12 01:23N 29°29' W 094°52'4 6.3
2018-Feb-12 00:49N 29°32' W 094°54'2 6.5
2018-Feb-12 00:30N 29°34' W 094°55'3 6.5
2018-Feb-12 00:00N 29°36' W 094°57'3 6.5
2018-Feb-11 23:29N 29°39' W 094°58'6 0.4
2018-Feb-11 07:49N 29°44' W 095°03'2 0.3
2018-Feb-10 22:28N 29°42' W 095°01'3 7.1
2018-Feb-10 22:00N 29°40' W 094°59'4 8.0
2018-Feb-10 21:30N 29°36' W 094°57'4 8.3
2018-Feb-10 21:00N 29°33' W 094°54'  

Dump ship's entire track history